sensor_id;sensor_type;location;lat;lon;timestamp;temperature;humidity
19536;HTU21D;9913;51.168;4.124;2024-02-23T00:02:32;4.91;98.90
19536;HTU21D;9913;51.168;4.124;2024-02-23T00:05:00;4.97;98.56
19536;HTU21D;9913;51.168;4.124;2024-02-23T00:07:29;4.94;98.43
19536;HTU21D;9913;51.168;4.124;2024-02-23T00:09:57;4.96;98.18
19536;HTU21D;9913;51.168;4.124;2024-02-23T00:12:27;4.98;98.32
19536;HTU21D;9913;51.168;4.124;2024-02-23T00:14:55;5.00;98.84
19536;HTU21D;9913;51.168;4.124;2024-02-23T00:17:24;4.95;98.68
19536;HTU21D;9913;51.168;4.124;2024-02-23T00:19:52;4.98;98.79
19536;HTU21D;9913;51.168;4.124;2024-02-23T00:22:21;4.96;98.75
19536;HTU21D;9913;51.168;4.124;2024-02-23T00:24:49;4.96;98.48
19536;HTU21D;9913;51.168;4.124;2024-02-23T00:27:17;4.98;98.81
19536;HTU21D;9913;51.168;4.124;2024-02-23T00:29:47;4.89;98.73
19536;HTU21D;9913;51.168;4.124;2024-02-23T00:32:15;4.95;98.64
19536;HTU21D;9913;51.168;4.124;2024-02-23T00:34:43;4.88;98.36
19536;HTU21D;9913;51.168;4.124;2024-02-23T00:37:12;4.91;98.23
19536;HTU21D;9913;51.168;4.124;2024-02-23T00:39:40;4.86;98.58
19536;HTU21D;9913;51.168;4.124;2024-02-23T00:42:09;4.92;98.84
19536;HTU21D;9913;51.168;4.124;2024-02-23T00:44:37;5.05;98.77
19536;HTU21D;9913;51.168;4.124;2024-02-23T00:47:07;5.11;99.48
19536;HTU21D;9913;51.168;4.124;2024-02-23T00:49:36;5.08;98.77
19536;HTU21D;9913;51.168;4.124;2024-02-23T00:52:05;5.11;99.28
19536;HTU21D;9913;51.168;4.124;2024-02-23T00:54:33;5.18;99.50
19536;HTU21D;9913;51.168;4.124;2024-02-23T00:57:02;5.15;99.55
19536;HTU21D;9913;51.168;4.124;2024-02-23T00:59:30;5.17;100.22
19536;HTU21D;9913;51.168;4.124;2024-02-23T01:01:59;5.18;99.71
19536;HTU21D;9913;51.168;4.124;2024-02-23T01:04:28;5.16;99.20
19536;HTU21D;9913;51.168;4.124;2024-02-23T01:06:58;5.11;99.54
19536;HTU21D;9913;51.168;4.124;2024-02-23T01:09:27;5.11;99.48
19536;HTU21D;9913;51.168;4.124;2024-02-23T01:11:55;5.07;99.42
19536;HTU21D;9913;51.168;4.124;2024-02-23T01:14:23;5.07;99.22
19536;HTU21D;9913;51.168;4.124;2024-02-23T01:16:52;5.07;99.21
19536;HTU21D;9913;51.168;4.124;2024-02-23T01:19:20;5.03;99.35
19536;HTU21D;9913;51.168;4.124;2024-02-23T01:21:50;5.02;99.35
19536;HTU21D;9913;51.168;4.124;2024-02-23T01:24:26;4.93;98.80
19536;HTU21D;9913;51.168;4.124;2024-02-23T01:26:56;4.94;98.67
19536;HTU21D;9913;51.168;4.124;2024-02-23T01:29:25;4.86;99.25
19536;HTU21D;9913;51.168;4.124;2024-02-23T01:31:54;4.84;99.09
19536;HTU21D;9913;51.168;4.124;2024-02-23T01:34:22;4.81;99.26
19536;HTU21D;9913;51.168;4.124;2024-02-23T01:36:52;4.81;99.33
19536;HTU21D;9913;51.168;4.124;2024-02-23T01:39:20;4.79;99.12
19536;HTU21D;9913;51.168;4.124;2024-02-23T01:41:49;4.80;98.89
19536;HTU21D;9913;51.168;4.124;2024-02-23T01:44:17;4.76;99.28
19536;HTU21D;9913;51.168;4.124;2024-02-23T01:46:48;4.78;99.31
19536;HTU21D;9913;51.168;4.124;2024-02-23T01:49:17;4.81;99.38
19536;HTU21D;9913;51.168;4.124;2024-02-23T01:51:46;4.91;99.01
19536;HTU21D;9913;51.168;4.124;2024-02-23T01:54:16;5.00;99.03
19536;HTU21D;9913;51.168;4.124;2024-02-23T01:56:44;5.13;99.03
19536;HTU21D;9913;51.168;4.124;2024-02-23T01:59:13;5.19;98.54
19536;HTU21D;9913;51.168;4.124;2024-02-23T02:01:42;5.13;98.45
19536;HTU21D;9913;51.168;4.124;2024-02-23T02:04:11;4.93;98.71
19536;HTU21D;9913;51.168;4.124;2024-02-23T02:06:39;4.86;98.96
19536;HTU21D;9913;51.168;4.124;2024-02-23T02:09:08;4.84;99.16
19536;HTU21D;9913;51.168;4.124;2024-02-23T02:11:46;4.89;98.86
19536;HTU21D;9913;51.168;4.124;2024-02-23T02:14:15;4.90;99.03
19536;HTU21D;9913;51.168;4.124;2024-02-23T02:16:43;4.90;99.00
19536;HTU21D;9913;51.168;4.124;2024-02-23T02:19:12;4.87;99.06
19536;HTU21D;9913;51.168;4.124;2024-02-23T02:21:41;4.86;98.90
19536;HTU21D;9913;51.168;4.124;2024-02-23T02:24:09;4.86;98.98
19536;HTU21D;9913;51.168;4.124;2024-02-23T02:26:41;4.83;99.16
19536;HTU21D;9913;51.168;4.124;2024-02-23T02:29:11;4.90;98.99
19536;HTU21D;9913;51.168;4.124;2024-02-23T02:31:39;4.87;99.29
19536;HTU21D;9913;51.168;4.124;2024-02-23T02:34:08;4.88;99.38
19536;HTU21D;9913;51.168;4.124;2024-02-23T02:36:40;4.93;99.35
19536;HTU21D;9913;51.168;4.124;2024-02-23T02:39:08;4.93;99.27
19536;HTU21D;9913;51.168;4.124;2024-02-23T02:41:37;4.96;99.34
19536;HTU21D;9913;51.168;4.124;2024-02-23T02:44:06;4.98;99.33
19536;HTU21D;9913;51.168;4.124;2024-02-23T02:46:38;5.02;99.13
19536;HTU21D;9913;51.168;4.124;2024-02-23T02:49:06;5.03;99.35
19536;HTU21D;9913;51.168;4.124;2024-02-23T02:51:35;5.08;99.51
19536;HTU21D;9913;51.168;4.124;2024-02-23T02:54:03;5.05;99.49
19536;HTU21D;9913;51.168;4.124;2024-02-23T02:56:31;4.95;99.31
19536;HTU21D;9913;51.168;4.124;2024-02-23T02:59:00;5.04;99.55
19536;HTU21D;9913;51.168;4.124;2024-02-23T03:01:28;5.04;99.32
19536;HTU21D;9913;51.168;4.124;2024-02-23T03:03:58;5.05;99.40
19536;HTU21D;9913;51.168;4.124;2024-02-23T03:06:26;5.08;99.38
19536;HTU21D;9913;51.168;4.124;2024-02-23T03:08:54;5.09;99.88
19536;HTU21D;9913;51.168;4.124;2024-02-23T03:11:23;5.10;99.56
19536;HTU21D;9913;51.168;4.124;2024-02-23T03:13:51;5.12;99.28
19536;HTU21D;9913;51.168;4.124;2024-02-23T03:16:20;5.12;99.35
19536;HTU21D;9913;51.168;4.124;2024-02-23T03:18:50;5.10;99.69
19536;HTU21D;9913;51.168;4.124;2024-02-23T03:21:19;5.17;99.26
19536;HTU21D;9913;51.168;4.124;2024-02-23T03:23:48;5.17;99.45
19536;HTU21D;9913;51.168;4.124;2024-02-23T03:26:16;5.18;99.62
19536;HTU21D;9913;51.168;4.124;2024-02-23T03:28:45;5.21;99.55
19536;HTU21D;9913;51.168;4.124;2024-02-23T03:31:13;5.24;99.91
19536;HTU21D;9913;51.168;4.124;2024-02-23T03:33:41;5.26;99.36
19536;HTU21D;9913;51.168;4.124;2024-02-23T03:36:10;5.31;99.94
19536;HTU21D;9913;51.168;4.124;2024-02-23T03:38:39;5.32;99.28
19536;HTU21D;9913;51.168;4.124;2024-02-23T03:41:08;5.25;99.92
19536;HTU21D;9913;51.168;4.124;2024-02-23T03:43:36;5.28;100.07
19536;HTU21D;9913;51.168;4.124;2024-02-23T03:46:06;5.30;99.58
19536;HTU21D;9913;51.168;4.124;2024-02-23T03:48:34;5.28;99.48
19536;HTU21D;9913;51.168;4.124;2024-02-23T03:51:04;5.32;99.48
19536;HTU21D;9913;51.168;4.124;2024-02-23T03:53:32;5.32;99.62
19536;HTU21D;9913;51.168;4.124;2024-02-23T03:56:02;5.38;99.82
19536;HTU21D;9913;51.168;4.124;2024-02-23T03:58:31;5.39;99.55
19536;HTU21D;9913;51.168;4.124;2024-02-23T04:00:59;5.42;99.48
19536;HTU21D;9913;51.168;4.124;2024-02-23T04:03:27;5.43;99.82
19536;HTU21D;9913;51.168;4.124;2024-02-23T04:05:56;5.37;99.67
19536;HTU21D;9913;51.168;4.124;2024-02-23T04:08:24;5.42;99.76
19536;HTU21D;9913;51.168;4.124;2024-02-23T04:10:52;5.45;99.70
19536;HTU21D;9913;51.168;4.124;2024-02-23T04:13:22;5.42;99.78
19536;HTU21D;9913;51.168;4.124;2024-02-23T04:15:51;5.31;99.77
19536;HTU21D;9913;51.168;4.124;2024-02-23T04:18:19;5.28;99.88
19536;HTU21D;9913;51.168;4.124;2024-02-23T04:20:47;5.22;100.09
19536;HTU21D;9913;51.168;4.124;2024-02-23T04:23:15;5.21;99.77
19536;HTU21D;9913;51.168;4.124;2024-02-23T04:25:44;5.22;100.26
19536;HTU21D;9913;51.168;4.124;2024-02-23T04:28:12;5.13;99.81
19536;HTU21D;9913;51.168;4.124;2024-02-23T04:30:42;5.11;100.23
19536;HTU21D;9913;51.168;4.124;2024-02-23T04:33:10;5.17;100.06
19536;HTU21D;9913;51.168;4.124;2024-02-23T04:35:39;5.13;99.93
19536;HTU21D;9913;51.168;4.124;2024-02-23T04:38:07;5.09;100.12
19536;HTU21D;9913;51.168;4.124;2024-02-23T04:40:35;5.16;100.18
19536;HTU21D;9913;51.168;4.124;2024-02-23T04:43:04;5.18;100.21
19536;HTU21D;9913;51.168;4.124;2024-02-23T04:45:32;5.22;100.78
19536;HTU21D;9913;51.168;4.124;2024-02-23T04:48:02;5.22;100.65
19536;HTU21D;9913;51.168;4.124;2024-02-23T04:50:31;5.23;100.51
19536;HTU21D;9913;51.168;4.124;2024-02-23T04:52:59;5.21;100.35
19536;HTU21D;9913;51.168;4.124;2024-02-23T04:55:27;5.17;100.61
19536;HTU21D;9913;51.168;4.124;2024-02-23T04:57:56;5.13;100.27
19536;HTU21D;9913;51.168;4.124;2024-02-23T05:00:24;5.10;100.16
19536;HTU21D;9913;51.168;4.124;2024-02-23T05:02:59;5.11;99.89
19536;HTU21D;9913;51.168;4.124;2024-02-23T05:05:32;5.11;99.91
19536;HTU21D;9913;51.168;4.124;2024-02-23T05:08:00;5.19;100.26
19536;HTU21D;9913;51.168;4.124;2024-02-23T05:10:29;5.18;100.83
19536;HTU21D;9913;51.168;4.124;2024-02-23T05:12:57;5.22;100.58
19536;HTU21D;9913;51.168;4.124;2024-02-23T05:15:25;5.22;100.52
19536;HTU21D;9913;51.168;4.124;2024-02-23T05:17:54;5.13;100.45
19536;HTU21D;9913;51.168;4.124;2024-02-23T05:20:22;5.09;100.04
19536;HTU21D;9913;51.168;4.124;2024-02-23T05:22:52;5.07;100.67
19536;HTU21D;9913;51.168;4.124;2024-02-23T05:25:20;5.03;100.34
19536;HTU21D;9913;51.168;4.124;2024-02-23T05:27:49;4.97;100.37
19536;HTU21D;9913;51.168;4.124;2024-02-23T05:30:17;4.96;100.29
19536;HTU21D;9913;51.168;4.124;2024-02-23T05:32:45;4.88;100.45
19536;HTU21D;9913;51.168;4.124;2024-02-23T05:35:14;4.91;100.51
19536;HTU21D;9913;51.168;4.124;2024-02-23T05:37:42;4.91;100.65
19536;HTU21D;9913;51.168;4.124;2024-02-23T05:40:12;4.92;100.82
19536;HTU21D;9913;51.168;4.124;2024-02-23T05:42:40;4.93;100.20
19536;HTU21D;9913;51.168;4.124;2024-02-23T05:45:09;4.94;100.30
19536;HTU21D;9913;51.168;4.124;2024-02-23T05:47:38;4.96;100.62
19536;HTU21D;9913;51.168;4.124;2024-02-23T05:50:12;5.02;101.12
19536;HTU21D;9913;51.168;4.124;2024-02-23T05:52:41;5.06;101.14
19536;HTU21D;9913;51.168;4.124;2024-02-23T05:55:09;5.09;100.37
19536;HTU21D;9913;51.168;4.124;2024-02-23T05:57:40;5.10;101.63
19536;HTU21D;9913;51.168;4.124;2024-02-23T06:00:09;5.10;101.18
19536;HTU21D;9913;51.168;4.124;2024-02-23T06:02:40;5.07;101.48
19536;HTU21D;9913;51.168;4.124;2024-02-23T06:05:08;5.07;101.17
19536;HTU21D;9913;51.168;4.124;2024-02-23T06:07:37;5.07;100.97
19536;HTU21D;9913;51.168;4.124;2024-02-23T06:10:06;5.04;101.51
19536;HTU21D;9913;51.168;4.124;2024-02-23T06:12:34;5.06;100.89
19536;HTU21D;9913;51.168;4.124;2024-02-23T06:15:05;5.09;100.91
19536;HTU21D;9913;51.168;4.124;2024-02-23T06:17:33;5.12;101.44
19536;HTU21D;9913;51.168;4.124;2024-02-23T06:20:02;5.20;101.51
19536;HTU21D;9913;51.168;4.124;2024-02-23T06:22:33;5.20;101.88
19536;HTU21D;9913;51.168;4.124;2024-02-23T06:25:02;5.24;101.62
19536;HTU21D;9913;51.168;4.124;2024-02-23T06:27:30;5.30;101.28
19536;HTU21D;9913;51.168;4.124;2024-02-23T06:29:59;5.32;101.54
19536;HTU21D;9913;51.168;4.124;2024-02-23T06:32:30;5.35;101.70
19536;HTU21D;9913;51.168;4.124;2024-02-23T06:34:59;5.40;101.08
19536;HTU21D;9913;51.168;4.124;2024-02-23T06:37:27;5.43;100.98
19536;HTU21D;9913;51.168;4.124;2024-02-23T06:39:56;5.39;101.88
19536;HTU21D;9913;51.168;4.124;2024-02-23T06:42:24;5.49;101.47
19536;HTU21D;9913;51.168;4.124;2024-02-23T06:44:53;5.47;101.78
19536;HTU21D;9913;51.168;4.124;2024-02-23T06:47:21;5.49;100.87
19536;HTU21D;9913;51.168;4.124;2024-02-23T06:49:51;5.50;102.35
19536;HTU21D;9913;51.168;4.124;2024-02-23T06:52:20;5.56;101.58
19536;HTU21D;9913;51.168;4.124;2024-02-23T06:54:48;5.50;101.63
19536;HTU21D;9913;51.168;4.124;2024-02-23T06:57:16;5.55;102.13
19536;HTU21D;9913;51.168;4.124;2024-02-23T06:59:45;5.62;101.38
19536;HTU21D;9913;51.168;4.124;2024-02-23T07:02:13;5.62;101.65
19536;HTU21D;9913;51.168;4.124;2024-02-23T07:04:42;5.68;102.26
19536;HTU21D;9913;51.168;4.124;2024-02-23T07:07:11;5.66;101.78
19536;HTU21D;9913;51.168;4.124;2024-02-23T07:09:40;5.65;102.06
19536;HTU21D;9913;51.168;4.124;2024-02-23T07:12:08;5.68;101.40
19536;HTU21D;9913;51.168;4.124;2024-02-23T07:14:40;5.74;102.28
19536;HTU21D;9913;51.168;4.124;2024-02-23T07:17:09;5.70;101.71
19536;HTU21D;9913;51.168;4.124;2024-02-23T07:19:38;5.78;101.32
19536;HTU21D;9913;51.168;4.124;2024-02-23T07:22:06;5.85;101.67
19536;HTU21D;9913;51.168;4.124;2024-02-23T07:24:39;5.86;102.57
19536;HTU21D;9913;51.168;4.124;2024-02-23T07:27:07;5.97;102.06
19536;HTU21D;9913;51.168;4.124;2024-02-23T07:29:36;5.92;102.06
19536;HTU21D;9913;51.168;4.124;2024-02-23T07:32:05;5.98;101.60
19536;HTU21D;9913;51.168;4.124;2024-02-23T07:34:34;5.99;102.02
19536;HTU21D;9913;51.168;4.124;2024-02-23T07:37:03;6.00;101.49
19536;HTU21D;9913;51.168;4.124;2024-02-23T07:39:32;6.04;102.46
19536;HTU21D;9913;51.168;4.124;2024-02-23T07:42:02;6.08;101.76
19536;HTU21D;9913;51.168;4.124;2024-02-23T07:44:30;6.04;102.47
19536;HTU21D;9913;51.168;4.124;2024-02-23T07:46:59;6.07;101.22
19536;HTU21D;9913;51.168;4.124;2024-02-23T07:49:28;6.08;101.76
19536;HTU21D;9913;51.168;4.124;2024-02-23T07:51:57;6.01;100.86
19536;HTU21D;9913;51.168;4.124;2024-02-23T07:54:25;5.96;100.31
19536;HTU21D;9913;51.168;4.124;2024-02-23T07:56:54;5.92;100.70
19536;HTU21D;9913;51.168;4.124;2024-02-23T07:59:26;5.82;100.19
19536;HTU21D;9913;51.168;4.124;2024-02-23T08:01:55;5.76;98.99
19536;HTU21D;9913;51.168;4.124;2024-02-23T08:04:24;5.71;99.35
19536;HTU21D;9913;51.168;4.124;2024-02-23T08:06:52;5.65;98.94
19536;HTU21D;9913;51.168;4.124;2024-02-23T08:09:21;5.62;98.85
19536;HTU21D;9913;51.168;4.124;2024-02-23T08:11:51;5.69;98.21
19536;HTU21D;9913;51.168;4.124;2024-02-23T08:14:19;5.63;98.68
19536;HTU21D;9913;51.168;4.124;2024-02-23T08:16:49;5.61;99.15
19536;HTU21D;9913;51.168;4.124;2024-02-23T08:19:18;5.60;98.39
19536;HTU21D;9913;51.168;4.124;2024-02-23T08:21:47;5.60;98.22
19536;HTU21D;9913;51.168;4.124;2024-02-23T08:24:15;5.62;98.44
19536;HTU21D;9913;51.168;4.124;2024-02-23T08:26:44;5.61;98.73
19536;HTU21D;9913;51.168;4.124;2024-02-23T08:29:13;5.64;98.40
19536;HTU21D;9913;51.168;4.124;2024-02-23T08:31:41;5.66;98.71
19536;HTU21D;9913;51.168;4.124;2024-02-23T08:34:11;5.65;99.35
19536;HTU21D;9913;51.168;4.124;2024-02-23T08:36:39;5.74;98.29
19536;HTU21D;9913;51.168;4.124;2024-02-23T08:39:08;5.69;98.56
19536;HTU21D;9913;51.168;4.124;2024-02-23T08:41:37;5.79;98.97
19536;HTU21D;9913;51.168;4.124;2024-02-23T08:44:05;5.91;98.63
19536;HTU21D;9913;51.168;4.124;2024-02-23T08:46:34;6.06;99.20
19536;HTU21D;9913;51.168;4.124;2024-02-23T08:49:02;6.26;98.60
19536;HTU21D;9913;51.168;4.124;2024-02-23T08:51:32;6.37;99.05
19536;HTU21D;9913;51.168;4.124;2024-02-23T08:54:00;6.28;99.64
19536;HTU21D;9913;51.168;4.124;2024-02-23T08:56:31;6.30;99.67
19536;HTU21D;9913;51.168;4.124;2024-02-23T08:59:00;6.31;99.14
19536;HTU21D;9913;51.168;4.124;2024-02-23T09:01:28;6.24;99.49
19536;HTU21D;9913;51.168;4.124;2024-02-23T09:03:56;6.27;99.90
19536;HTU21D;9913;51.168;4.124;2024-02-23T09:06:25;6.36;100.08
19536;HTU21D;9913;51.168;4.124;2024-02-23T09:08:55;6.35;99.27
19536;HTU21D;9913;51.168;4.124;2024-02-23T09:11:23;6.33;99.69
19536;HTU21D;9913;51.168;4.124;2024-02-23T09:13:52;6.38;99.90
19536;HTU21D;9913;51.168;4.124;2024-02-23T09:16:20;6.46;99.70
19536;HTU21D;9913;51.168;4.124;2024-02-23T09:18:50;6.49;100.20
19536;HTU21D;9913;51.168;4.124;2024-02-23T09:21:18;6.53;100.48
19536;HTU21D;9913;51.168;4.124;2024-02-23T09:23:47;6.64;100.41
19536;HTU21D;9913;51.168;4.124;2024-02-23T09:26:16;6.71;100.09
19536;HTU21D;9913;51.168;4.124;2024-02-23T09:28:45;6.75;100.86
19536;HTU21D;9913;51.168;4.124;2024-02-23T09:31:13;6.68;100.57
19536;HTU21D;9913;51.168;4.124;2024-02-23T09:33:41;6.73;101.74
19536;HTU21D;9913;51.168;4.124;2024-02-23T09:36:11;6.73;100.32
19536;HTU21D;9913;51.168;4.124;2024-02-23T09:38:39;6.78;100.89
19536;HTU21D;9913;51.168;4.124;2024-02-23T09:41:14;6.76;101.14
19536;HTU21D;9913;51.168;4.124;2024-02-23T09:43:46;6.90;100.48
19536;HTU21D;9913;51.168;4.124;2024-02-23T09:46:15;6.99;101.35
19536;HTU21D;9913;51.168;4.124;2024-02-23T09:48:45;7.01;101.57
19536;HTU21D;9913;51.168;4.124;2024-02-23T09:51:15;7.23;101.07
19536;HTU21D;9913;51.168;4.124;2024-02-23T09:53:44;7.24;102.30
19536;HTU21D;9913;51.168;4.124;2024-02-23T09:56:13;7.24;101.96
19536;HTU21D;9913;51.168;4.124;2024-02-23T09:58:46;7.12;101.07
19536;HTU21D;9913;51.168;4.124;2024-02-23T10:01:21;7.18;101.85
19536;HTU21D;9913;51.168;4.124;2024-02-23T10:03:54;7.18;101.70
19536;HTU21D;9913;51.168;4.124;2024-02-23T10:06:24;7.20;102.06
19536;HTU21D;9913;51.168;4.124;2024-02-23T10:08:53;7.33;102.76
19536;HTU21D;9913;51.168;4.124;2024-02-23T10:11:22;7.33;101.86
19536;HTU21D;9913;51.168;4.124;2024-02-23T10:13:52;7.29;103.12
19536;HTU21D;9913;51.168;4.124;2024-02-23T10:16:22;7.42;101.54
19536;HTU21D;9913;51.168;4.124;2024-02-23T10:18:50;7.42;102.59
19536;HTU21D;9913;51.168;4.124;2024-02-23T10:21:19;7.43;103.10
19536;HTU21D;9913;51.168;4.124;2024-02-23T10:23:47;7.53;102.86
19536;HTU21D;9913;51.168;4.124;2024-02-23T10:26:17;7.52;102.49
19536;HTU21D;9913;51.168;4.124;2024-02-23T10:28:49;7.45;102.50
19536;HTU21D;9913;51.168;4.124;2024-02-23T10:31:19;7.49;102.71
19536;HTU21D;9913;51.168;4.124;2024-02-23T10:33:49;7.57;102.86
19536;HTU21D;9913;51.168;4.124;2024-02-23T10:36:20;7.54;102.57
19536;HTU21D;9913;51.168;4.124;2024-02-23T10:38:52;7.55;103.49
19536;HTU21D;9913;51.168;4.124;2024-02-23T10:41:23;7.67;103.21
19536;HTU21D;9913;51.168;4.124;2024-02-23T10:43:51;7.69;102.78
19536;HTU21D;9913;51.168;4.124;2024-02-23T10:46:23;7.74;103.69
19536;HTU21D;9913;51.168;4.124;2024-02-23T10:48:51;7.86;102.94
19536;HTU21D;9913;51.168;4.124;2024-02-23T10:51:22;8.20;104.23
19536;HTU21D;9913;51.168;4.124;2024-02-23T10:53:52;8.39;105.13
19536;HTU21D;9913;51.168;4.124;2024-02-23T10:56:21;8.34;103.76
19536;HTU21D;9913;51.168;4.124;2024-02-23T10:58:51;8.39;102.78
19536;HTU21D;9913;51.168;4.124;2024-02-23T11:01:20;8.48;104.80
19536;HTU21D;9913;51.168;4.124;2024-02-23T11:03:51;8.80;104.84
19536;HTU21D;9913;51.168;4.124;2024-02-23T11:06:27;9.10;104.77
19536;HTU21D;9913;51.168;4.124;2024-02-23T11:09:05;9.22;104.60
19536;HTU21D;9913;51.168;4.124;2024-02-23T11:11:34;8.87;106.15
19536;HTU21D;9913;51.168;4.124;2024-02-23T11:14:07;8.57;105.34
19536;HTU21D;9913;51.168;4.124;2024-02-23T11:16:39;8.29;103.92
19536;HTU21D;9913;51.168;4.124;2024-02-23T11:19:10;8.37;103.65
19536;HTU21D;9913;51.168;4.124;2024-02-23T11:21:39;8.18;103.40
19536;HTU21D;9913;51.168;4.124;2024-02-23T11:24:07;8.14;104.12
19536;HTU21D;9913;51.168;4.124;2024-02-23T11:26:37;8.02;104.53
19536;HTU21D;9913;51.168;4.124;2024-02-23T11:29:14;8.06;103.77
19536;HTU21D;9913;51.168;4.124;2024-02-23T11:31:46;7.94;104.36
19536;HTU21D;9913;51.168;4.124;2024-02-23T11:34:23;7.96;103.97
19536;HTU21D;9913;51.168;4.124;2024-02-23T11:36:52;7.93;104.39
19536;HTU21D;9913;51.168;4.124;2024-02-23T11:39:21;8.06;103.88
19536;HTU21D;9913;51.168;4.124;2024-02-23T11:41:50;8.26;105.40
19536;HTU21D;9913;51.168;4.124;2024-02-23T11:44:18;8.35;104.87
19536;HTU21D;9913;51.168;4.124;2024-02-23T11:46:47;8.33;105.62
19536;HTU21D;9913;51.168;4.124;2024-02-23T11:49:15;8.57;104.08
19536;HTU21D;9913;51.168;4.124;2024-02-23T11:51:45;8.61;105.11
19536;HTU21D;9913;51.168;4.124;2024-02-23T11:54:14;8.44;104.56
19536;HTU21D;9913;51.168;4.124;2024-02-23T11:56:42;8.36;105.08
19536;HTU21D;9913;51.168;4.124;2024-02-23T11:59:11;8.22;105.13
19536;HTU21D;9913;51.168;4.124;2024-02-23T12:01:39;8.50;104.72
19536;HTU21D;9913;51.168;4.124;2024-02-23T12:04:07;8.56;104.47
19536;HTU21D;9913;51.168;4.124;2024-02-23T12:06:36;8.43;103.85
19536;HTU21D;9913;51.168;4.124;2024-02-23T12:09:06;8.45;104.76
19536;HTU21D;9913;51.168;4.124;2024-02-23T12:11:34;8.35;104.28
19536;HTU21D;9913;51.168;4.124;2024-02-23T12:14:03;8.36;103.50
19536;HTU21D;9913;51.168;4.124;2024-02-23T12:16:35;8.31;104.08
19536;HTU21D;9913;51.168;4.124;2024-02-23T12:19:04;8.28;102.50
19536;HTU21D;9913;51.168;4.124;2024-02-23T12:21:34;8.60;103.14
19536;HTU21D;9913;51.168;4.124;2024-02-23T12:24:06;8.49;103.50
19536;HTU21D;9913;51.168;4.124;2024-02-23T12:26:35;8.41;102.98
19536;HTU21D;9913;51.168;4.124;2024-02-23T12:29:05;8.53;102.82
19536;HTU21D;9913;51.168;4.124;2024-02-23T12:31:34;8.49;103.24
19536;HTU21D;9913;51.168;4.124;2024-02-23T12:34:02;8.46;103.94
19536;HTU21D;9913;51.168;4.124;2024-02-23T12:36:31;8.46;103.27
19536;HTU21D;9913;51.168;4.124;2024-02-23T12:39:02;8.67;102.60
19536;HTU21D;9913;51.168;4.124;2024-02-23T12:41:32;8.66;102.83
19536;HTU21D;9913;51.168;4.124;2024-02-23T12:44:00;8.77;103.55
19536;HTU21D;9913;51.168;4.124;2024-02-23T12:46:29;8.72;103.47
19536;HTU21D;9913;51.168;4.124;2024-02-23T12:48:57;8.51;106.31
19536;HTU21D;9913;51.168;4.124;2024-02-23T12:51:26;8.51;106.05
19536;HTU21D;9913;51.168;4.124;2024-02-23T12:53:55;8.95;105.27
19536;HTU21D;9913;51.168;4.124;2024-02-23T12:56:24;9.16;107.63
19536;HTU21D;9913;51.168;4.124;2024-02-23T12:58:54;9.55;106.75
19536;HTU21D;9913;51.168;4.124;2024-02-23T13:01:22;9.77;106.57
19536;HTU21D;9913;51.168;4.124;2024-02-23T13:03:51;9.62;106.69
19536;HTU21D;9913;51.168;4.124;2024-02-23T13:06:20;9.74;105.77
19536;HTU21D;9913;51.168;4.124;2024-02-23T13:08:49;9.63;106.30
19536;HTU21D;9913;51.168;4.124;2024-02-23T13:11:17;9.76;105.13
19536;HTU21D;9913;51.168;4.124;2024-02-23T13:13:45;9.51;106.01
19536;HTU21D;9913;51.168;4.124;2024-02-23T13:16:15;9.71;105.52
19536;HTU21D;9913;51.168;4.124;2024-02-23T13:18:44;9.49;105.32
19536;HTU21D;9913;51.168;4.124;2024-02-23T13:21:14;9.21;105.74
19536;HTU21D;9913;51.168;4.124;2024-02-23T13:23:42;9.20;105.57
19536;HTU21D;9913;51.168;4.124;2024-02-23T13:26:11;9.11;104.41
19536;HTU21D;9913;51.168;4.124;2024-02-23T13:28:42;9.46;103.99
19536;HTU21D;9913;51.168;4.124;2024-02-23T13:31:11;9.48;104.21
19536;HTU21D;9913;51.168;4.124;2024-02-23T13:33:42;9.35;105.31
19536;HTU21D;9913;51.168;4.124;2024-02-23T13:36:11;9.27;105.34
19536;HTU21D;9913;51.168;4.124;2024-02-23T13:38:39;9.52;105.99
19536;HTU21D;9913;51.168;4.124;2024-02-23T13:41:09;9.57;105.36
19536;HTU21D;9913;51.168;4.124;2024-02-23T13:43:38;9.81;105.79
19536;HTU21D;9913;51.168;4.124;2024-02-23T13:46:07;9.74;108.04
19536;HTU21D;9913;51.168;4.124;2024-02-23T13:48:35;9.71;106.85
19536;HTU21D;9913;51.168;4.124;2024-02-23T13:51:06;9.64;107.66
19536;HTU21D;9913;51.168;4.124;2024-02-23T13:53:34;9.09;105.83
19536;HTU21D;9913;51.168;4.124;2024-02-23T13:56:04;9.02;105.92
19536;HTU21D;9913;51.168;4.124;2024-02-23T13:58:33;8.96;105.60
19536;HTU21D;9913;51.168;4.124;2024-02-23T14:01:01;8.98;104.73
19536;HTU21D;9913;51.168;4.124;2024-02-23T14:03:30;9.07;104.71
19536;HTU21D;9913;51.168;4.124;2024-02-23T14:05:58;9.15;105.31
19536;HTU21D;9913;51.168;4.124;2024-02-23T14:08:28;9.06;105.89
19536;HTU21D;9913;51.168;4.124;2024-02-23T14:10:56;9.14;105.41
19536;HTU21D;9913;51.168;4.124;2024-02-23T14:13:25;9.21;105.18
19536;HTU21D;9913;51.168;4.124;2024-02-23T14:15:53;9.16;105.50
19536;HTU21D;9913;51.168;4.124;2024-02-23T14:18:22;9.40;105.81
19536;HTU21D;9913;51.168;4.124;2024-02-23T14:20:50;9.42;107.01
19536;HTU21D;9913;51.168;4.124;2024-02-23T14:23:19;9.71;106.81
19536;HTU21D;9913;51.168;4.124;2024-02-23T14:25:49;9.55;107.27
19536;HTU21D;9913;51.168;4.124;2024-02-23T14:28:18;9.30;106.98
19536;HTU21D;9913;51.168;4.124;2024-02-23T14:30:47;9.12;105.88
19536;HTU21D;9913;51.168;4.124;2024-02-23T14:33:15;9.08;105.75
19536;HTU21D;9913;51.168;4.124;2024-02-23T14:35:44;9.11;105.80
19536;HTU21D;9913;51.168;4.124;2024-02-23T14:38:12;9.18;106.63
19536;HTU21D;9913;51.168;4.124;2024-02-23T14:40:41;9.21;107.42
19536;HTU21D;9913;51.168;4.124;2024-02-23T14:43:10;9.38;105.96
19536;HTU21D;9913;51.168;4.124;2024-02-23T14:45:39;9.21;107.27
19536;HTU21D;9913;51.168;4.124;2024-02-23T14:48:08;9.08;106.63
19536;HTU21D;9913;51.168;4.124;2024-02-23T14:50:36;8.98;107.09
19536;HTU21D;9913;51.168;4.124;2024-02-23T14:53:05;8.90;106.56
19536;HTU21D;9913;51.168;4.124;2024-02-23T14:55:35;8.83;106.33
19536;HTU21D;9913;51.168;4.124;2024-02-23T14:58:03;8.90;106.20
19536;HTU21D;9913;51.168;4.124;2024-02-23T15:00:33;8.95;106.28
19536;HTU21D;9913;51.168;4.124;2024-02-23T15:03:01;8.90;106.66
19536;HTU21D;9913;51.168;4.124;2024-02-23T15:05:30;8.88;105.90
19536;HTU21D;9913;51.168;4.124;2024-02-23T15:07:58;8.80;106.44
19536;HTU21D;9913;51.168;4.124;2024-02-23T15:10:27;8.78;106.50
19536;HTU21D;9913;51.168;4.124;2024-02-23T15:12:56;8.71;105.37
19536;HTU21D;9913;51.168;4.124;2024-02-23T15:15:24;8.67;107.03
19536;HTU21D;9913;51.168;4.124;2024-02-23T15:17:54;8.61;105.04
19536;HTU21D;9913;51.168;4.124;2024-02-23T15:20:22;8.48;104.02
19536;HTU21D;9913;51.168;4.124;2024-02-23T15:22:51;7.91;103.07
19536;HTU21D;9913;51.168;4.124;2024-02-23T15:25:19;7.59;98.36
19536;HTU21D;9913;51.168;4.124;2024-02-23T15:27:48;6.96;94.87
19536;HTU21D;9913;51.168;4.124;2024-02-23T15:30:19;6.36;95.01
19536;HTU21D;9913;51.168;4.124;2024-02-23T15:32:47;6.06;95.34
19536;HTU21D;9913;51.168;4.124;2024-02-23T15:35:17;6.12;95.33
19536;HTU21D;9913;51.168;4.124;2024-02-23T15:37:48;6.19;94.80
19536;HTU21D;9913;51.168;4.124;2024-02-23T15:40:16;6.27;94.68
19536;HTU21D;9913;51.168;4.124;2024-02-23T15:42:44;6.50;94.19
19536;HTU21D;9913;51.168;4.124;2024-02-23T15:45:13;7.02;92.95
19536;HTU21D;9913;51.168;4.124;2024-02-23T15:47:41;7.19;93.76
19536;HTU21D;9913;51.168;4.124;2024-02-23T15:50:10;6.95;93.85